createdAt,value
2022-09-09T00:02:05.509Z,89.49
2022-09-09T00:04:38.873Z,89.44
2022-09-09T00:07:31.329Z,89.47
2022-09-09T00:10:19.898Z,89.47
2022-09-09T00:13:11.718Z,89.47
2022-09-09T00:15:50.877Z,89.47
2022-09-09T00:18:24.304Z,89.47
2022-09-09T00:21:09.965Z,89.42
2022-09-09T00:23:42.980Z,89.48
2022-09-09T00:26:22.320Z,89.46
2022-09-09T00:28:58.809Z,89.44
2022-09-09T00:31:32.241Z,89.46
2022-09-09T00:34:08.288Z,89.42
2022-09-09T00:36:40.598Z,89.45
2022-09-09T00:39:17.066Z,89.49
2022-09-09T00:42:02.221Z,89.52
2022-09-09T00:44:38.219Z,89.52
2022-09-09T00:47:37.612Z,89.48
2022-09-09T00:50:14.377Z,89.44
2022-09-09T00:53:02.938Z,89.44
2022-09-09T00:55:42.347Z,89.48
2022-09-09T00:58:13.923Z,89.47
2022-09-09T01:00:50.314Z,89.52
2022-09-09T01:03:32.741Z,89.51
2022-09-09T01:06:34.784Z,89.51
2022-09-09T01:09:14.453Z,89.45
2022-09-09T01:12:02.843Z,89.42
2022-09-09T01:14:48.443Z,89.45
2022-09-09T01:17:36.568Z,89.42
2022-09-09T01:20:37.051Z,89.19
2022-09-09T01:23:26.699Z,89.27
2022-09-09T01:26:25.437Z,89.24
2022-09-09T01:28:56.622Z,89.21
2022-09-09T01:31:39.021Z,89.25
2022-09-09T01:34:16.921Z,89.26
2022-09-09T01:36:53.010Z,89.25
2022-09-09T01:39:24.447Z,89.26
2022-09-09T01:41:56.790Z,89.22
2022-09-09T01:44:28.830Z,89.23
2022-09-09T01:46:59.318Z,89.20
2022-09-09T01:49:29.923Z,89.09
2022-09-09T01:52:00.767Z,89.23
2022-09-09T01:54:34.155Z,89.18
2022-09-09T01:57:19.536Z,89.20
2022-09-09T02:00:02.064Z,89.25
2022-09-09T02:02:55.467Z,89.30
2022-09-09T02:05:41.036Z,89.32
2022-09-09T02:08:14.486Z,89.28
2022-09-09T02:10:47.954Z,89.25
2022-09-09T02:13:21.414Z,89.22
2022-09-09T02:16:20.641Z,89.24
2022-09-09T02:18:54.539Z,89.16
2022-09-09T02:21:26.381Z,89.22
2022-09-09T02:23:59.928Z,89.19
2022-09-09T02:26:31.212Z,89.07
2022-09-09T02:29:04.669Z,89.10
2022-09-09T02:31:37.028Z,89.10
2022-09-09T02:34:10.462Z,89.09
2022-09-09T02:36:44.582Z,89.17
2022-09-09T02:39:15.802Z,89.12
2022-09-09T02:41:46.106Z,89.16
2022-09-09T02:44:18.803Z,89.11
2022-09-09T02:47:04.106Z,89.16
2022-09-09T02:49:44.978Z,89.25
2022-09-09T02:52:23.397Z,89.19
2022-09-09T02:54:56.946Z,89.17
2022-09-09T02:57:30.201Z,89.16
2022-09-09T03:00:02.347Z,89.05
2022-09-09T03:02:32.840Z,88.96
2022-09-09T03:05:03.267Z,88.83
2022-09-09T03:07:35.946Z,88.93
2022-09-09T03:10:07.348Z,89.02
2022-09-09T03:12:37.848Z,89.16
2022-09-09T03:15:09.335Z,89.19
2022-09-09T03:17:39.968Z,89.25
2022-09-09T03:20:11.165Z,89.24
2022-09-09T03:22:41.631Z,89.19
2022-09-09T03:25:12.011Z,89.09
2022-09-09T03:27:42.385Z,89.21
2022-09-09T03:30:14.804Z,89.13
2022-09-09T03:32:48.887Z,89.12
2022-09-09T03:35:18.034Z,89.08
2022-09-09T03:37:48.806Z,89.11
2022-09-09T03:40:20.628Z,89.22
2022-09-09T03:42:51.037Z,89.25
2022-09-09T03:45:21.462Z,89.30
2022-09-09T03:47:51.869Z,89.10
2022-09-09T03:50:22.384Z,88.92
2022-09-09T03:52:52.759Z,88.78
2022-09-09T03:55:23.138Z,88.97
2022-09-09T03:57:53.632Z,88.89
2022-09-09T04:00:24.079Z,88.94
2022-09-09T04:02:56.222Z,88.80
2022-09-09T04:05:26.767Z,88.90
2022-09-09T04:07:57.092Z,88.82
2022-09-09T04:10:27.891Z,88.78
2022-09-09T04:12:58.384Z,88.64
2022-09-09T04:15:29.032Z,88.68
2022-09-09T04:17:59.544Z,88.14
2022-09-09T04:20:31.236Z,88.42
2022-09-09T04:23:01.759Z,88.13
2022-09-09T04:25:32.463Z,88.46
2022-09-09T04:28:03.797Z,88.27
2022-09-09T04:30:35.755Z,88.18
2022-09-09T04:33:06.141Z,88.32
2022-09-09T04:35:36.790Z,88.37
2022-09-09T04:38:10.478Z,88.31
2022-09-09T04:40:42.684Z,88.23
2022-09-09T04:43:14.597Z,88.36
2022-09-09T04:45:46.035Z,88.30
2022-09-09T04:48:16.849Z,88.40
2022-09-09T04:50:58.831Z,88.44
2022-09-09T04:53:29.487Z,88.30
2022-09-09T04:56:08.242Z,88.37
2022-09-09T04:58:39.460Z,88.16
2022-09-09T05:01:11.666Z,88.11
2022-09-09T05:03:43.065Z,87.96
2022-09-09T05:06:16.736Z,87.77
2022-09-09T05:08:47.271Z,87.90
2022-09-09T05:11:26.675Z,88.02
2022-09-09T05:13:57.966Z,88.09
2022-09-09T05:16:28.511Z,87.92
2022-09-09T05:19:00.015Z,87.57
2022-09-09T05:21:31.641Z,87.72
2022-09-09T05:24:02.167Z,87.43
2022-09-09T05:26:34.192Z,87.70
2022-09-09T05:29:05.126Z,87.65
2022-09-09T05:31:35.566Z,87.88
2022-09-09T05:34:06.030Z,87.77
2022-09-09T05:36:36.824Z,87.61
2022-09-09T05:39:07.398Z,87.80
2022-09-09T05:41:37.869Z,87.69
2022-09-09T05:44:08.841Z,87.74
2022-09-09T05:46:39.308Z,87.94
2022-09-09T05:49:09.841Z,87.87
2022-09-09T05:51:41.305Z,87.72
2022-09-09T05:54:13.739Z,88.00
2022-09-09T05:56:47.755Z,88.01
2022-09-09T05:59:16.840Z,87.56
2022-09-09T06:01:47.935Z,87.43
2022-09-09T06:04:18.987Z,87.14
2022-09-09T06:06:49.697Z,86.99
2022-09-09T06:09:20.079Z,86.81
2022-09-09T06:11:50.484Z,86.39
2022-09-09T06:14:21.525Z,86.62
2022-09-09T06:16:51.872Z,86.57
2022-09-09T06:19:22.252Z,86.48
2022-09-09T06:21:52.559Z,86.52
2022-09-09T06:24:23.204Z,86.56
2022-09-09T06:26:54.995Z,86.62
2022-09-09T06:29:25.481Z,86.49
2022-09-09T06:31:55.967Z,85.85
2022-09-09T06:34:26.499Z,85.69
2022-09-09T06:36:58.891Z,86.05
2022-09-09T06:39:29.499Z,85.45
2022-09-09T06:42:01.589Z,85.80
2022-09-09T06:44:35.215Z,85.08
2022-09-09T06:47:05.082Z,85.37
2022-09-09T06:49:36.015Z,85.23
2022-09-09T06:52:06.463Z,84.63
2022-09-09T06:54:38.368Z,85.08
2022-09-09T06:57:27.103Z,84.90
2022-09-09T06:59:40.898Z,84.31
2022-09-09T07:02:11.359Z,83.95
2022-09-09T07:04:41.783Z,84.26
2022-09-09T07:07:13.915Z,83.24
2022-09-09T07:09:45.953Z,82.65
2022-09-09T07:12:16.363Z,82.73
2022-09-09T07:14:47.073Z,81.83
2022-09-09T07:17:17.446Z,81.52
2022-09-09T07:19:49.146Z,81.15
2022-09-09T07:22:21.110Z,81.04
2022-09-09T07:24:51.522Z,80.24
2022-09-09T07:27:22.239Z,79.99
2022-09-09T07:29:54.907Z,78.56
2022-09-09T07:32:26.512Z,79.22
2022-09-09T07:34:57.016Z,78.72
2022-09-09T07:37:27.402Z,77.69
2022-09-09T07:39:57.966Z,77.59
2022-09-09T07:42:29.063Z,76.38
2022-09-09T07:45:00.399Z,75.16
2022-09-09T07:47:30.807Z,75.03
2022-09-09T07:50:01.193Z,74.96
2022-09-09T07:52:31.683Z,73.30
2022-09-09T07:55:03.321Z,74.51
2022-09-09T07:57:33.923Z,75.09
2022-09-09T08:00:05.943Z,75.28
2022-09-09T08:02:36.325Z,75.07
2022-09-09T08:05:07.127Z,74.99
2022-09-09T08:07:37.554Z,75.53
2022-09-09T08:10:08.635Z,75.46
2022-09-09T08:12:40.280Z,73.44
2022-09-09T08:15:14.845Z,73.99
2022-09-09T08:17:45.615Z,74.37
2022-09-09T08:20:16.048Z,75.15
2022-09-09T08:22:46.367Z,74.26
2022-09-09T08:25:16.834Z,73.16
2022-09-09T08:27:47.249Z,73.74
2022-09-09T08:30:17.785Z,74.19
2022-09-09T08:32:50.777Z,74.11
2022-09-09T08:35:21.442Z,75.03
2022-09-09T08:37:54.837Z,74.18
2022-09-09T08:40:28.318Z,73.94
2022-09-09T08:43:00.938Z,73.65
2022-09-09T08:45:37.029Z,73.63
2022-09-09T08:48:19.103Z,73.17
2022-09-09T08:50:53.095Z,72.95
2022-09-09T08:53:26.716Z,72.25
2022-09-09T08:56:02.588Z,72.15
2022-09-09T08:58:35.820Z,71.37
2022-09-09T09:01:12.334Z,72.39
2022-09-09T09:04:09.796Z,72.42
2022-09-09T09:07:04.057Z,72.87
2022-09-09T09:09:54.438Z,72.22
2022-09-09T09:12:28.005Z,72.32
2022-09-09T09:15:00.503Z,72.02
2022-09-09T09:17:34.101Z,71.72
2022-09-09T09:20:07.274Z,70.52
2022-09-09T09:22:40.783Z,69.97
2022-09-09T09:25:23.459Z,70.43
2022-09-09T09:28:02.370Z,69.07
2022-09-09T09:30:36.013Z,68.96
2022-09-09T09:33:21.242Z,68.68
2022-09-09T09:35:54.555Z,67.82
2022-09-09T09:41:01.756Z,68.63
2022-09-09T09:43:37.388Z,71.20
2022-09-09T09:46:18.384Z,68.12
2022-09-09T09:48:42.830Z,68.12
2022-09-09T09:51:16.874Z,68.21
2022-09-09T09:53:47.876Z,68.25
2022-09-09T09:56:18.363Z,69.29
2022-09-09T09:58:52.053Z,68.76
2022-09-09T10:01:30.967Z,67.46
2022-09-09T10:04:20.453Z,68.56
2022-09-09T10:06:51.755Z,69.47
2022-09-09T10:09:33.855Z,68.76
2022-09-09T10:12:16.052Z,68.53
2022-09-09T10:15:07.364Z,67.34
2022-09-09T10:17:43.636Z,66.90
2022-09-09T10:20:36.711Z,66.94
2022-09-09T10:23:16.138Z,67.52
2022-09-09T10:25:49.587Z,67.70
2022-09-09T10:28:41.625Z,65.79
2022-09-09T10:31:27.751Z,66.06
2022-09-09T10:34:01.236Z,66.09
2022-09-09T10:36:31.610Z,65.44
2022-09-09T10:39:05.592Z,65.79
2022-09-09T10:41:39.910Z,65.30
2022-09-09T10:44:30.758Z,65.51
2022-09-09T10:47:08.048Z,65.01
2022-09-09T10:49:57.499Z,63.84
2022-09-09T10:52:45.855Z,64.00
2022-09-09T10:55:29.713Z,63.32
2022-09-09T10:58:01.674Z,63.02
2022-09-09T11:00:40.831Z,62.81
2022-09-09T11:03:17.071Z,63.13
2022-09-09T11:05:50.548Z,62.50
2022-09-09T11:08:27.364Z,62.79
2022-09-09T11:11:24.897Z,62.51
2022-09-09T11:14:01.151Z,62.62
2022-09-09T11:16:49.852Z,63.16
2022-09-09T11:19:26.058Z,63.24
2022-09-09T11:21:58.899Z,63.20
2022-09-09T11:24:35.484Z,62.78
2022-09-09T11:27:17.952Z,61.08
2022-09-09T11:30:07.562Z,59.05
2022-09-09T11:32:46.914Z,53.50
2022-09-09T11:35:56.243Z,47.30
2022-09-09T11:38:48.840Z,41.52
2022-09-09T11:41:22.106Z,39.80
2022-09-09T11:43:53.943Z,43.39
2022-09-09T11:46:36.246Z,42.92
2022-09-09T11:49:10.024Z,41.94
2022-09-09T11:51:41.075Z,40.69
2022-09-09T11:54:36.016Z,43.99
2022-09-09T11:57:06.849Z,39.53
2022-09-09T11:59:38.166Z,36.71
2022-09-09T12:02:15.521Z,34.22
2022-09-09T12:05:05.348Z,33.00
2022-09-09T12:07:39.308Z,33.49
2022-09-09T12:10:30.967Z,35.06
2022-09-09T12:13:23.788Z,37.54
2022-09-09T12:15:56.734Z,39.34
2022-09-09T12:18:35.675Z,44.19
2022-09-09T12:21:11.854Z,45.42
2022-09-09T12:23:47.792Z,46.89
2022-09-09T12:26:39.245Z,46.72
2022-09-09T12:29:30.596Z,47.91
2022-09-09T12:32:09.805Z,48.76
2022-09-09T12:35:03.875Z,48.85
2022-09-09T12:37:49.364Z,50.25
2022-09-09T12:40:28.976Z,50.85
2022-09-09T12:43:02.378Z,52.00
2022-09-09T12:45:36.969Z,53.11
2022-09-09T12:48:16.723Z,53.27
2022-09-09T12:50:52.477Z,52.83
2022-09-09T12:53:27.423Z,53.33
2022-09-09T12:56:11.622Z,52.80
2022-09-09T12:58:45.173Z,52.83
2022-09-09T13:01:29.644Z,52.20
2022-09-09T13:04:00.849Z,51.24
2022-09-09T13:06:33.499Z,51.73
2022-09-09T13:09:04.796Z,52.66
2022-09-09T13:11:44.207Z,52.31
2022-09-09T13:14:21.236Z,52.98
2022-09-09T13:17:00.323Z,54.42
2022-09-09T13:19:34.077Z,54.21
2022-09-09T13:22:28.527Z,54.91
2022-09-09T13:25:07.689Z,55.12
2022-09-09T13:27:43.573Z,55.61
2022-09-09T13:30:30.144Z,55.61
2022-09-09T13:33:18.699Z,55.51
2022-09-09T13:35:54.810Z,55.58
2022-09-09T13:38:27.615Z,55.99
2022-09-09T13:41:05.170Z,55.75
2022-09-09T13:43:48.166Z,56.60
2022-09-09T13:46:33.582Z,56.59
2022-09-09T13:49:12.688Z,56.15
2022-09-09T13:51:47.328Z,55.79
2022-09-09T13:54:20.103Z,55.28
2022-09-09T13:56:50.730Z,53.44
2022-09-09T13:59:22.399Z,54.96
2022-09-09T14:01:53.468Z,55.58
2022-09-09T14:04:23.910Z,55.25
2022-09-09T14:06:54.287Z,54.96
2022-09-09T14:09:24.669Z,54.30
2022-09-09T14:11:56.281Z,54.18
2022-09-09T14:14:26.660Z,54.41
2022-09-09T14:16:57.062Z,53.36
2022-09-09T14:19:27.513Z,53.37
2022-09-09T14:21:57.913Z,53.13
2022-09-09T14:24:28.837Z,53.41
2022-09-09T14:26:59.240Z,54.02
2022-09-09T14:29:29.706Z,54.26
2022-09-09T14:32:01.997Z,54.33
2022-09-09T14:34:34.169Z,55.22
2022-09-09T14:37:04.661Z,55.55
2022-09-09T14:39:35.295Z,55.46
2022-09-09T14:42:06.350Z,54.91
2022-09-09T14:44:36.742Z,54.41
2022-09-09T14:47:10.270Z,55.30
2022-09-09T14:49:42.629Z,55.13
2022-09-09T14:52:12.695Z,55.05
2022-09-09T14:54:43.062Z,54.77
2022-09-09T14:57:13.579Z,55.59
2022-09-09T14:59:43.988Z,54.48
2022-09-09T15:02:15.220Z,54.97
2022-09-09T15:04:46.887Z,55.09
2022-09-09T15:07:19.403Z,55.20
2022-09-09T15:09:49.721Z,55.69
2022-09-09T15:12:21.377Z,55.34
2022-09-09T15:14:53.225Z,55.80
2022-09-09T15:17:25.645Z,57.16
2022-09-09T15:19:56.020Z,57.02
2022-09-09T15:22:26.739Z,57.90
2022-09-09T15:24:58.636Z,57.33
2022-09-09T15:27:30.000Z,57.88
2022-09-09T15:30:01.740Z,58.31
2022-09-09T15:32:34.226Z,58.79
2022-09-09T15:35:04.830Z,58.72
2022-09-09T15:37:35.232Z,59.35
2022-09-09T15:40:06.026Z,59.69
2022-09-09T15:42:36.405Z,59.94
2022-09-09T15:45:07.747Z,59.66
2022-09-09T15:47:38.147Z,61.02
2022-09-09T15:50:08.990Z,61.82
2022-09-09T15:52:39.637Z,62.21
2022-09-09T15:55:10.506Z,65.21
2022-09-09T15:57:41.602Z,65.96
2022-09-09T16:00:14.018Z,65.46
2022-09-09T16:02:44.480Z,65.74
2022-09-09T16:05:15.005Z,66.38
2022-09-09T16:07:45.985Z,66.53
2022-09-09T16:10:16.820Z,64.82
2022-09-09T16:12:47.708Z,64.84
2022-09-09T16:15:18.574Z,66.81
2022-09-09T16:17:49.027Z,65.28
2022-09-09T16:20:19.890Z,64.51
2022-09-09T16:22:50.293Z,64.48
2022-09-09T16:25:21.477Z,63.47
2022-09-09T16:27:51.904Z,63.78
2022-09-09T16:30:22.800Z,62.55
2022-09-09T16:32:54.501Z,63.32
2022-09-09T16:35:24.824Z,64.46
2022-09-09T16:37:55.187Z,65.60
2022-09-09T16:40:25.551Z,64.99
2022-09-09T16:42:56.042Z,63.86
2022-09-09T16:45:26.428Z,63.41
2022-09-09T16:47:57.273Z,63.24
2022-09-09T16:50:28.155Z,64.68
2022-09-09T16:52:58.619Z,64.53
2022-09-09T16:55:30.933Z,65.36
2022-09-09T16:58:01.537Z,66.78
2022-09-09T17:00:31.908Z,67.02
2022-09-09T17:03:03.414Z,66.89
2022-09-09T17:05:33.759Z,66.52
2022-09-09T17:08:05.724Z,66.21
2022-09-09T17:10:36.459Z,67.34
2022-09-09T17:13:06.869Z,69.64
2022-09-09T17:15:44.962Z,69.56
2022-09-09T17:18:15.323Z,68.67
2022-09-09T17:20:47.477Z,67.69
2022-09-09T17:23:18.110Z,68.88
2022-09-09T17:25:51.868Z,65.77
2022-09-09T17:28:23.901Z,65.49
2022-09-09T17:30:55.089Z,65.35
2022-09-09T17:33:27.103Z,64.54
2022-09-09T17:35:58.225Z,67.42
2022-09-09T17:38:30.712Z,67.60
2022-09-09T17:41:07.019Z,68.69
2022-09-09T17:43:38.690Z,69.12
2022-09-09T17:46:11.813Z,68.73
2022-09-09T17:48:44.515Z,69.30
2022-09-09T17:51:19.259Z,69.34
2022-09-09T17:53:51.276Z,69.85
2022-09-09T17:56:23.564Z,71.10
2022-09-09T17:58:54.629Z,69.95
2022-09-09T18:01:31.332Z,71.70
2022-09-09T18:04:04.595Z,69.98
2022-09-09T18:06:38.394Z,69.69
2022-09-09T18:09:13.104Z,70.93
2022-09-09T18:11:46.079Z,68.68
2022-09-09T18:14:20.291Z,69.56
2022-09-09T18:16:51.864Z,69.19
2022-09-09T18:19:24.982Z,67.93
2022-09-09T18:21:57.582Z,66.66
2022-09-09T18:24:28.190Z,65.72
2022-09-09T18:26:58.651Z,66.05
2022-09-09T18:29:29.722Z,65.12
2022-09-09T18:32:00.132Z,65.55
2022-09-09T18:34:30.725Z,66.59
2022-09-09T18:37:01.091Z,66.89
2022-09-09T18:39:31.974Z,67.19
2022-09-09T18:42:03.004Z,67.08
2022-09-09T18:44:35.748Z,67.13
2022-09-09T18:47:08.015Z,67.90
2022-09-09T18:49:38.418Z,68.02
2022-09-09T18:52:12.810Z,68.60
2022-09-09T18:54:42.530Z,68.24
2022-09-09T18:57:13.509Z,69.16
2022-09-09T18:59:43.901Z,69.70
2022-09-09T19:02:14.914Z,69.98
2022-09-09T19:04:45.297Z,70.60
2022-09-09T19:07:15.706Z,70.62
2022-09-09T19:09:46.535Z,70.89
2022-09-09T19:12:17.306Z,70.97
2022-09-09T19:14:47.864Z,70.94
2022-09-09T19:17:18.260Z,70.75
2022-09-09T19:19:51.411Z,71.05
2022-09-09T19:22:23.223Z,70.96
2022-09-09T19:24:53.597Z,71.15
2022-09-09T19:27:24.093Z,71.00
2022-09-09T19:30:05.180Z,71.41
2022-09-09T19:32:52.608Z,71.25
2022-09-09T19:35:11.119Z,71.68
2022-09-09T19:37:42.195Z,71.53
2022-09-09T19:40:12.861Z,71.64
2022-09-09T19:42:43.978Z,71.55
2022-09-09T19:45:14.290Z,71.95
2022-09-09T19:47:44.677Z,71.71
2022-09-09T19:50:15.125Z,71.96
2022-09-09T19:52:45.547Z,72.51
2022-09-09T19:55:16.073Z,72.44
2022-09-09T19:57:46.395Z,71.74
2022-09-09T20:00:18.560Z,71.94
2022-09-09T20:03:15.212Z,71.96
2022-09-09T20:05:23.753Z,71.68
2022-09-09T20:07:54.134Z,71.51
2022-09-09T20:10:24.623Z,72.08
2022-09-09T20:12:55.189Z,72.26
2022-09-09T20:15:26.310Z,72.21
2022-09-09T20:17:58.144Z,72.26
2022-09-09T20:20:29.017Z,72.14
2022-09-09T20:22:59.403Z,71.84
2022-09-09T20:25:29.987Z,71.30
2022-09-09T20:28:00.366Z,71.18
2022-09-09T20:30:31.207Z,71.11
2022-09-09T20:33:01.605Z,71.11
2022-09-09T20:35:33.144Z,71.53
2022-09-09T20:38:03.638Z,71.92
2022-09-09T20:40:38.697Z,72.14
2022-09-09T20:43:10.700Z,72.53
2022-09-09T20:45:42.705Z,72.94
2022-09-09T20:48:13.039Z,72.96
2022-09-09T20:50:43.453Z,73.35
2022-09-09T20:53:14.020Z,73.48
2022-09-09T20:55:44.356Z,73.53
2022-09-09T20:58:14.685Z,74.05
2022-09-09T21:00:44.926Z,73.90
2022-09-09T21:03:15.683Z,74.38
2022-09-09T21:05:47.751Z,74.49
2022-09-09T21:08:18.480Z,74.41
2022-09-09T21:10:49.709Z,74.30
2022-09-09T21:13:20.973Z,74.31
2022-09-09T21:15:52.617Z,74.22
2022-09-09T21:18:27.363Z,74.46
2022-09-09T21:20:58.086Z,74.62
2022-09-09T21:23:29.184Z,74.77
2022-09-09T21:25:59.815Z,75.05
2022-09-09T21:28:31.353Z,75.48
2022-09-09T21:31:02.374Z,75.26
2022-09-09T21:33:34.459Z,75.70
2022-09-09T21:36:09.046Z,75.63
2022-09-09T21:38:42.605Z,74.77
2022-09-09T21:41:15.673Z,74.90
2022-09-09T21:43:47.288Z,74.72
2022-09-09T21:46:18.478Z,74.34
2022-09-09T21:48:48.999Z,74.68
2022-09-09T21:51:19.747Z,74.70
2022-09-09T21:53:50.456Z,75.01
2022-09-09T21:56:20.834Z,75.06
2022-09-09T21:58:56.840Z,75.03
2022-09-09T22:01:27.425Z,75.16
2022-09-09T22:03:57.859Z,75.24
2022-09-09T22:06:28.518Z,75.52
2022-09-09T22:08:59.354Z,75.72
2022-09-09T22:11:31.175Z,75.82
2022-09-09T22:14:02.544Z,76.05
2022-09-09T22:16:32.989Z,76.38
2022-09-09T22:19:03.591Z,76.34
2022-09-09T22:21:34.168Z,76.40
2022-09-09T22:24:06.673Z,76.39
2022-09-09T22:26:38.237Z,76.73
2022-09-09T22:29:09.013Z,76.91
2022-09-09T22:31:40.081Z,76.96
2022-09-09T22:34:10.515Z,76.93
2022-09-09T22:36:40.943Z,77.28
2022-09-09T22:39:11.317Z,77.63
2022-09-09T22:41:42.523Z,77.48
2022-09-09T22:44:13.073Z,77.59
2022-09-09T22:46:43.791Z,77.68
2022-09-09T22:49:14.640Z,77.79
2022-09-09T22:51:45.020Z,77.91
2022-09-09T22:54:15.402Z,78.08
2022-09-09T22:56:45.716Z,77.88
2022-09-09T22:59:16.080Z,78.28
2022-09-09T23:01:47.929Z,78.20
2022-09-09T23:04:19.920Z,79.07
2022-09-09T23:06:50.235Z,79.02
2022-09-09T23:09:20.758Z,78.99
2022-09-09T23:11:51.493Z,78.82
2022-09-09T23:14:22.038Z,78.57
2022-09-09T23:16:52.607Z,79.14
2022-09-09T23:19:23.868Z,79.40
2022-09-09T23:21:57.839Z,79.16
2022-09-09T23:24:29.085Z,79.20
2022-09-09T23:26:59.574Z,78.81
2022-09-09T23:29:30.027Z,79.00
2022-09-09T23:32:00.542Z,78.72
2022-09-09T23:34:31.796Z,78.93
2022-09-09T23:37:02.597Z,79.12
2022-09-09T23:39:32.957Z,79.50
2022-09-09T23:42:06.341Z,79.31
2022-09-09T23:44:38.161Z,79.86
2022-09-09T23:47:09.861Z,79.94
2022-09-09T23:49:40.176Z,79.99
2022-09-09T23:52:10.667Z,80.11
2022-09-09T23:54:41.050Z,80.16
2022-09-09T23:57:13.533Z,80.28
2022-09-09T23:59:43.881Z,80.17
